Terminal Aerodrome Forecast
Issued by NWS Tiyan, Guam

Home | Current Version | Previous Version | Text Only | Print | Product List | Glossary On
Versions: 1 2 3 4 5 6 7 8 9 10 11 12
000
FTPQ31 PGUM 221133
TAFGUM
TAF
PGUM 221133Z 2212/2318 07010KT P6SM VCSH FEW020
     FM222200 07014G20KT P6SM VCSH FEW020 SCT070=

USA.gov is the U.S. government's official web portal to all federal, state and local government web resources and services.